createdAt,value
2017-08-24T00:01:31.424Z,15.43
2017-08-24T00:03:58.740Z,14.23
2017-08-24T00:06:26.066Z,16.73
2017-08-24T00:08:53.437Z,15.87
2017-08-24T00:11:21.115Z,15.20
2017-08-24T00:13:48.747Z,14.60
2017-08-24T00:16:16.116Z,18.10
2017-08-24T00:18:43.422Z,13.40
2017-08-24T00:21:10.967Z,16.30
2017-08-24T00:23:38.292Z,18.07
2017-08-24T00:26:05.621Z,17.63
2017-08-24T00:28:33.086Z,17.07
2017-08-24T00:31:00.409Z,18.70
2017-08-24T00:33:27.788Z,15.97
2017-08-24T00:35:55.129Z,18.27
2017-08-24T00:38:22.424Z,21.43
2017-08-24T00:40:49.745Z,17.40
2017-08-24T00:43:17.138Z,18.67
2017-08-24T00:45:44.788Z,19.63
2017-08-24T00:48:12.129Z,20.90
2017-08-24T00:50:39.486Z,22.03
2017-08-24T00:53:06.813Z,18.70
2017-08-24T00:55:34.159Z,18.43
2017-08-24T00:58:01.466Z,20.27
2017-08-24T01:00:29.147Z,19.53
2017-08-24T01:02:56.491Z,18.77
2017-08-24T01:05:25.045Z,18.13
2017-08-24T01:07:52.357Z,21.50
2017-08-24T01:10:19.837Z,19.20
2017-08-24T01:12:47.194Z,20.80
2017-08-24T01:15:14.624Z,17.80
2017-08-24T01:17:42.270Z,19.97
2017-08-24T01:20:09.565Z,17.23
2017-08-24T01:22:36.947Z,21.03
2017-08-24T01:25:04.280Z,22.97
2017-08-24T01:27:31.593Z,25.40
2017-08-24T01:29:58.888Z,21.27
2017-08-24T01:32:26.216Z,20.93
2017-08-24T01:34:53.549Z,24.87
2017-08-24T01:37:20.869Z,22.53
2017-08-24T01:39:48.173Z,20.53
2017-08-24T01:42:15.530Z,21.17
2017-08-24T01:44:42.824Z,21.20
2017-08-24T01:47:10.265Z,21.67
2017-08-24T01:49:37.628Z,23.00
2017-08-24T01:52:04.937Z,21.50
2017-08-24T01:54:32.406Z,26.27
2017-08-24T01:56:59.734Z,20.87
2017-08-24T01:59:27.058Z,22.47
2017-08-24T02:01:54.539Z,21.87
2017-08-24T02:04:21.899Z,24.30
2017-08-24T02:06:49.212Z,27.43
2017-08-24T02:09:16.751Z,24.23
2017-08-24T02:11:44.382Z,23.33
2017-08-24T02:14:11.715Z,26.23
2017-08-24T02:16:39.181Z,24.37
2017-08-24T02:19:06.528Z,23.10
2017-08-24T02:21:34.172Z,22.33
2017-08-24T02:24:01.493Z,18.63
2017-08-24T02:26:28.862Z,21.73
2017-08-24T02:28:56.234Z,21.93
2017-08-24T02:31:23.541Z,25.10
2017-08-24T02:33:51.221Z,18.67
2017-08-24T02:36:18.520Z,23.53
2017-08-24T02:38:45.943Z,24.70
2017-08-24T02:41:13.338Z,20.27
2017-08-24T02:43:41.169Z,22.77
2017-08-24T02:46:08.495Z,20.40
2017-08-24T02:48:35.845Z,20.07
2017-08-24T02:51:03.166Z,22.77
2017-08-24T02:53:30.476Z,18.43
2017-08-24T02:55:57.791Z,21.30
2017-08-24T02:58:25.108Z,19.43
2017-08-24T03:00:52.756Z,22.00
2017-08-24T03:03:20.402Z,23.00
2017-08-24T03:05:47.722Z,21.10
2017-08-24T03:08:15.045Z,22.97
2017-08-24T03:10:42.365Z,20.70
2017-08-24T03:13:09.673Z,21.50
2017-08-24T03:15:37.020Z,21.33
2017-08-24T03:18:04.339Z,19.30
2017-08-24T03:20:31.661Z,23.73
2017-08-24T03:22:58.977Z,25.17
2017-08-24T03:25:26.323Z,25.30
2017-08-24T03:27:53.967Z,20.37
2017-08-24T03:30:21.742Z,22.87
2017-08-24T03:32:49.061Z,22.63
2017-08-24T03:35:16.417Z,23.60
2017-08-24T03:37:43.762Z,23.33
2017-08-24T03:40:11.102Z,22.93
2017-08-24T03:42:38.425Z,20.60
2017-08-24T03:45:05.795Z,24.77
2017-08-24T03:47:33.459Z,23.20
2017-08-24T03:50:00.753Z,24.93
2017-08-24T03:52:28.410Z,21.37
2017-08-24T03:54:55.705Z,21.10
2017-08-24T03:57:23.092Z,18.60
2017-08-24T03:59:50.520Z,21.00
2017-08-24T04:02:17.889Z,19.23
2017-08-24T04:04:45.510Z,19.97
2017-08-24T04:07:12.829Z,23.00
2017-08-24T04:09:40.292Z,18.23
2017-08-24T04:12:07.617Z,22.40
2017-08-24T04:14:35.284Z,15.43
2017-08-24T04:17:02.609Z,19.73
2017-08-24T04:19:29.929Z,22.97
2017-08-24T04:21:57.424Z,14.77
2017-08-24T04:24:24.734Z,19.30
2017-08-24T04:26:52.036Z,17.80
2017-08-24T04:29:19.351Z,19.07
2017-08-24T04:31:46.672Z,15.53
2017-08-24T04:34:14.054Z,16.17
2017-08-24T04:36:41.484Z,16.80
2017-08-24T04:39:08.801Z,15.67
2017-08-24T04:41:36.100Z,15.70
2017-08-24T04:44:03.423Z,13.63
2017-08-24T04:46:31.213Z,16.07
2017-08-24T04:48:58.520Z,13.87
2017-08-24T04:51:25.845Z,18.43
2017-08-24T04:53:53.205Z,22.03
2017-08-24T04:56:20.533Z,19.30
2017-08-24T04:58:47.848Z,16.33
2017-08-24T05:01:15.158Z,18.37
2017-08-24T05:03:42.489Z,18.73
2017-08-24T05:06:10.016Z,17.17
2017-08-24T05:08:37.362Z,24.27
2017-08-24T05:11:04.701Z,18.07
2017-08-24T05:13:32.089Z,19.83
2017-08-24T05:15:59.401Z,21.33
2017-08-24T05:18:26.753Z,16.77
2017-08-24T05:20:54.965Z,16.60
2017-08-24T05:23:22.314Z,16.97
2017-08-24T05:25:49.654Z,17.67
2017-08-24T05:28:16.997Z,15.87
2017-08-24T05:30:44.323Z,16.53
2017-08-24T05:33:11.833Z,16.23
2017-08-24T05:35:39.130Z,17.90
2017-08-24T05:38:06.488Z,15.67
2017-08-24T05:40:33.788Z,15.93
2017-08-24T05:43:01.353Z,13.83
2017-08-24T05:45:29.013Z,16.60
2017-08-24T05:47:56.728Z,12.37
2017-08-24T05:50:24.081Z,14.03
2017-08-24T05:52:51.401Z,16.60
2017-08-24T05:55:18.713Z,17.03
2017-08-24T05:57:46.013Z,18.33
2017-08-24T06:00:13.334Z,15.90
2017-08-24T06:02:40.643Z,13.57
2017-08-24T06:05:07.966Z,15.33
2017-08-24T06:07:35.487Z,16.13
2017-08-24T06:10:02.830Z,13.63
2017-08-24T06:12:30.162Z,13.93
2017-08-24T06:14:57.570Z,12.80
2017-08-24T06:17:24.878Z,12.30
2017-08-24T06:19:52.181Z,13.00
2017-08-24T06:22:19.561Z,17.27
2017-08-24T06:24:46.843Z,12.87
2017-08-24T06:27:14.181Z,10.97
2017-08-24T06:29:41.487Z,15.60
2017-08-24T06:32:08.798Z,13.43
2017-08-24T06:34:36.108Z,9.13
2017-08-24T06:37:03.441Z,14.10
2017-08-24T06:39:30.888Z,12.40
2017-08-24T06:41:58.205Z,10.83
2017-08-24T06:44:25.606Z,10.73
2017-08-24T06:46:52.949Z,10.73
2017-08-24T06:49:20.286Z,8.90
2017-08-24T06:51:47.657Z,11.97
2017-08-24T06:54:14.944Z,10.70
2017-08-24T06:56:42.266Z,11.63
2017-08-24T06:59:09.736Z,11.47
2017-08-24T07:01:37.370Z,9.63
2017-08-24T07:04:04.694Z,10.50
2017-08-24T07:06:31.986Z,7.10
2017-08-24T07:08:59.312Z,11.70
2017-08-24T07:11:26.636Z,12.43
2017-08-24T07:13:53.958Z,11.80
2017-08-24T07:16:21.297Z,7.97
2017-08-24T07:18:48.613Z,8.90
2017-08-24T07:21:16.037Z,8.83
2017-08-24T07:23:43.675Z,7.33
2017-08-24T07:26:11.026Z,9.73
2017-08-24T07:28:38.370Z,7.43
2017-08-24T07:31:05.688Z,10.80
2017-08-24T07:33:33.069Z,9.60
2017-08-24T07:36:00.399Z,7.53
2017-08-24T07:38:27.738Z,8.67
2017-08-24T07:40:55.468Z,9.20
2017-08-24T07:43:22.821Z,8.10
2017-08-24T07:45:50.142Z,9.77
2017-08-24T07:48:17.431Z,7.63
2017-08-24T07:50:44.750Z,7.63
2017-08-24T07:53:12.059Z,6.47
2017-08-24T07:55:39.365Z,8.80
2017-08-24T07:58:06.652Z,6.70
2017-08-24T08:00:33.995Z,9.60
2017-08-24T08:03:01.331Z,8.33
2017-08-24T08:05:28.692Z,7.00
2017-08-24T08:07:55.988Z,8.50
2017-08-24T08:10:23.292Z,9.67
2017-08-24T08:12:50.589Z,9.60
2017-08-24T08:15:17.961Z,6.50
2017-08-24T08:17:45.292Z,7.00
2017-08-24T08:20:12.638Z,6.73
2017-08-24T08:22:39.950Z,7.40
2017-08-24T08:25:07.254Z,7.40
2017-08-24T08:27:34.539Z,10.87
2017-08-24T08:30:01.875Z,8.40
2017-08-24T08:32:29.161Z,9.43
2017-08-24T08:34:56.731Z,7.70
2017-08-24T08:37:24.059Z,5.63
2017-08-24T08:39:51.347Z,10.70
2017-08-24T08:42:18.670Z,7.07
2017-08-24T08:44:46.034Z,8.30
2017-08-24T08:47:13.302Z,5.33
2017-08-24T08:49:40.624Z,5.23
2017-08-24T08:52:07.974Z,12.70
2017-08-24T08:54:35.277Z,11.50
2017-08-24T08:57:02.632Z,8.07
2017-08-24T08:59:29.980Z,5.97
2017-08-24T09:01:57.346Z,5.73
2017-08-24T09:04:24.644Z,4.80
2017-08-24T09:06:51.956Z,7.07
2017-08-24T09:09:19.256Z,7.23
2017-08-24T09:11:46.581Z,16.33
2017-08-24T09:14:13.894Z,7.20
2017-08-24T09:16:41.350Z,7.93
2017-08-24T09:19:08.726Z,10.30
2017-08-24T09:21:36.037Z,6.23
2017-08-24T09:24:03.357Z,5.00
2017-08-24T09:26:31.212Z,4.90
2017-08-24T09:28:58.513Z,7.30
2017-08-24T09:31:25.813Z,7.40
2017-08-24T09:33:53.161Z,5.00
2017-08-24T09:36:20.492Z,6.13
2017-08-24T09:38:47.798Z,5.27
2017-08-24T09:41:15.209Z,5.57
2017-08-24T09:43:42.917Z,10.30
2017-08-24T09:46:10.288Z,7.00
2017-08-24T09:48:37.643Z,6.10
2017-08-24T09:51:04.951Z,7.33
2017-08-24T09:53:32.286Z,6.30
2017-08-24T09:55:59.568Z,6.17
2017-08-24T09:58:26.898Z,7.83
2017-08-24T10:00:54.248Z,6.00
2017-08-24T10:03:21.578Z,9.00
2017-08-24T10:05:48.880Z,9.90
2017-08-24T10:08:16.185Z,8.97
2017-08-24T10:10:43.499Z,8.93
2017-08-24T10:13:10.827Z,9.20
2017-08-24T10:15:38.134Z,6.33
2017-08-24T10:18:05.442Z,9.00
2017-08-24T10:20:32.786Z,10.90
2017-08-24T10:23:00.131Z,8.40
2017-08-24T10:25:27.487Z,13.40
2017-08-24T10:27:54.787Z,8.23
2017-08-24T10:30:22.198Z,9.73
2017-08-24T10:32:49.453Z,11.23
2017-08-24T10:35:16.777Z,11.47
2017-08-24T10:37:44.072Z,6.30
2017-08-24T10:40:11.403Z,5.70
2017-08-24T10:42:38.712Z,10.80
2017-08-24T10:45:06.058Z,6.27
2017-08-24T10:47:33.344Z,9.10
2017-08-24T10:50:00.651Z,8.20
2017-08-24T10:52:28.016Z,8.50
2017-08-24T10:54:55.340Z,6.60
2017-08-24T10:57:22.685Z,6.03
2017-08-24T10:59:50.031Z,6.03
2017-08-24T11:02:17.551Z,7.83
2017-08-24T11:04:44.996Z,5.60
2017-08-24T11:07:12.287Z,8.10
2017-08-24T11:09:39.665Z,6.17
2017-08-24T11:12:07.016Z,5.10
2017-08-24T11:14:34.331Z,6.30
2017-08-24T11:17:01.631Z,6.30
2017-08-24T11:19:28.961Z,6.30
2017-08-24T11:21:56.286Z,9.30
2017-08-24T11:24:23.607Z,6.23
2017-08-24T11:26:50.911Z,4.80
2017-08-24T11:29:18.519Z,5.87
2017-08-24T11:31:45.864Z,9.20
2017-08-24T11:34:13.211Z,6.10
2017-08-24T11:36:40.761Z,8.00
2017-08-24T11:39:08.107Z,5.10
2017-08-24T11:41:35.422Z,7.33
2017-08-24T11:44:02.741Z,4.60
2017-08-24T11:46:30.444Z,5.47
2017-08-24T11:48:57.763Z,6.40
2017-08-24T11:51:25.110Z,6.80
2017-08-24T11:53:52.448Z,7.03
2017-08-24T11:56:19.740Z,8.30
2017-08-24T11:58:47.070Z,7.07
2017-08-24T12:01:14.382Z,6.47
2017-08-24T12:03:41.715Z,4.93
2017-08-24T12:06:09.081Z,6.10
2017-08-24T12:08:36.383Z,8.17
2017-08-24T12:11:03.704Z,8.20
2017-08-24T12:13:31.019Z,8.20
2017-08-24T12:15:58.337Z,11.70
2017-08-24T12:18:25.648Z,7.17
2017-08-24T12:20:52.972Z,8.40
2017-08-24T12:23:20.277Z,11.00
2017-08-24T12:25:48.115Z,9.57
2017-08-24T12:28:15.410Z,7.80
2017-08-24T12:30:42.735Z,8.17
2017-08-24T12:33:10.247Z,9.17
2017-08-24T12:35:37.668Z,9.67
2017-08-24T12:38:05.049Z,8.57
2017-08-24T12:40:32.648Z,12.53
2017-08-24T12:43:00.001Z,10.00
2017-08-24T12:45:27.334Z,14.13
2017-08-24T12:47:54.675Z,9.70
2017-08-24T12:50:21.982Z,9.80
2017-08-24T12:52:49.298Z,10.43
2017-08-24T12:55:16.603Z,10.43
2017-08-24T12:57:43.951Z,10.33
2017-08-24T13:00:11.300Z,13.83
2017-08-24T13:02:39.059Z,9.40
2017-08-24T13:05:06.367Z,9.77
2017-08-24T13:07:33.714Z,10.10
2017-08-24T13:10:01.117Z,9.30
2017-08-24T13:12:28.489Z,9.50
2017-08-24T13:14:55.990Z,9.97
2017-08-24T13:17:23.325Z,11.40
2017-08-24T13:19:50.625Z,15.23
2017-08-24T13:22:17.979Z,12.47
2017-08-24T13:24:45.280Z,11.30
2017-08-24T13:27:12.589Z,11.27
2017-08-24T13:29:41.022Z,12.80
2017-08-24T13:32:08.463Z,13.77
2017-08-24T13:34:36.177Z,15.30
2017-08-24T13:37:03.548Z,13.63
2017-08-24T13:39:30.893Z,12.40
2017-08-24T13:41:59.666Z,15.40
2017-08-24T13:44:27.974Z,15.10
2017-08-24T13:46:55.299Z,13.57
2017-08-24T13:49:22.624Z,15.83
2017-08-24T13:51:49.953Z,13.40
2017-08-24T13:54:17.302Z,15.50
2017-08-24T13:56:44.653Z,14.57
2017-08-24T13:59:12.449Z,17.00
2017-08-24T14:01:41.079Z,16.60
2017-08-24T14:04:08.460Z,17.57
2017-08-24T14:06:35.765Z,22.27
2017-08-24T14:09:03.109Z,17.47
2017-08-24T14:11:30.427Z,17.17
2017-08-24T14:13:57.762Z,19.87
2017-08-24T14:16:25.099Z,23.60
2017-08-24T14:18:52.393Z,19.40
2017-08-24T14:21:19.724Z,20.90
2017-08-24T14:23:47.234Z,24.60
2017-08-24T14:26:14.753Z,23.77
2017-08-24T14:28:42.094Z,22.30
2017-08-24T14:31:09.512Z,27.37
2017-08-24T14:33:37.289Z,26.53
2017-08-24T14:36:04.868Z,28.07
2017-08-24T14:38:32.230Z,25.60
2017-08-24T14:40:59.552Z,25.07
2017-08-24T14:43:26.882Z,27.63
2017-08-24T14:45:54.283Z,27.53
2017-08-24T14:48:21.589Z,26.10
2017-08-24T14:50:48.916Z,26.20
2017-08-24T14:53:16.248Z,29.40
2017-08-24T14:55:43.586Z,27.57
2017-08-24T14:58:11.025Z,21.80
2017-08-24T15:00:38.378Z,26.00
2017-08-24T15:03:05.713Z,24.73
2017-08-24T15:05:33.055Z,25.23
2017-08-24T15:08:00.456Z,24.07
2017-08-24T15:10:27.781Z,27.40
2017-08-24T15:12:55.442Z,24.90
2017-08-24T15:15:22.813Z,24.70
2017-08-24T15:17:50.130Z,24.30
2017-08-24T15:20:17.451Z,21.80
2017-08-24T15:22:44.785Z,25.83
2017-08-24T15:25:12.097Z,22.50
2017-08-24T15:27:39.450Z,22.27
2017-08-24T15:30:06.776Z,21.00
2017-08-24T15:32:34.135Z,23.00
2017-08-24T15:35:01.437Z,18.97
2017-08-24T15:37:28.770Z,20.20
2017-08-24T15:39:56.091Z,19.37
2017-08-24T15:42:23.408Z,19.73
2017-08-24T15:44:50.718Z,24.80
2017-08-24T15:47:19.535Z,25.10
2017-08-24T15:49:49.087Z,22.07
2017-08-24T15:52:16.406Z,25.40
2017-08-24T15:54:43.800Z,22.70
2017-08-24T15:57:11.107Z,24.00
2017-08-24T15:59:38.459Z,26.47
2017-08-24T16:02:05.921Z,24.03
2017-08-24T16:04:33.233Z,23.93
2017-08-24T16:07:00.575Z,22.67
2017-08-24T16:09:27.923Z,22.23
2017-08-24T16:11:55.344Z,24.57
2017-08-24T16:14:22.953Z,26.27
2017-08-24T16:16:50.271Z,24.00
2017-08-24T16:19:17.626Z,25.60
2017-08-24T16:21:45.006Z,25.17
2017-08-24T16:24:12.460Z,26.23
2017-08-24T16:26:40.669Z,29.47
2017-08-24T16:29:08.009Z,28.97
2017-08-24T16:31:35.344Z,24.60
2017-08-24T16:34:02.708Z,28.90
2017-08-24T16:36:30.023Z,26.13
2017-08-24T16:38:57.460Z,29.40
2017-08-24T16:41:24.797Z,27.80
2017-08-24T16:43:52.133Z,27.37
2017-08-24T16:46:19.787Z,29.30
2017-08-24T16:48:47.104Z,31.10
2017-08-24T16:51:14.438Z,33.33
2017-08-24T16:53:41.741Z,33.10
2017-08-24T16:56:09.078Z,32.40
2017-08-24T16:58:36.596Z,33.67
2017-08-24T17:01:03.957Z,39.17
2017-08-24T17:03:31.390Z,37.87
2017-08-24T17:05:58.746Z,35.70
2017-08-24T17:08:26.091Z,35.97
2017-08-24T17:10:53.416Z,42.17
2017-08-24T17:13:20.734Z,49.10
2017-08-24T17:15:48.443Z,38.00
2017-08-24T17:18:15.815Z,42.60
2017-08-24T17:20:43.258Z,42.43
2017-08-24T17:23:10.602Z,39.23
2017-08-24T17:25:38.241Z,43.63
2017-08-24T17:28:05.594Z,42.40
2017-08-24T17:30:32.926Z,44.60
2017-08-24T17:33:00.363Z,45.67
2017-08-24T17:35:27.726Z,44.33
2017-08-24T17:37:55.275Z,40.07
2017-08-24T17:40:22.711Z,41.47
2017-08-24T17:42:50.078Z,43.63
2017-08-24T17:45:17.519Z,45.77
2017-08-24T17:47:44.938Z,39.57
2017-08-24T17:50:12.261Z,38.90
2017-08-24T17:52:39.858Z,40.27
2017-08-24T17:55:07.168Z,42.00
2017-08-24T17:57:34.523Z,45.50
2017-08-24T18:00:01.840Z,42.80
2017-08-24T18:02:29.161Z,44.87
2017-08-24T18:04:56.474Z,44.20
2017-08-24T18:07:23.806Z,46.23
2017-08-24T18:09:51.121Z,43.47
2017-08-24T18:12:18.465Z,44.50
2017-08-24T18:14:45.793Z,49.77
2017-08-24T18:17:13.147Z,44.13
2017-08-24T18:19:40.473Z,47.43
2017-08-24T18:22:08.143Z,49.60
2017-08-24T18:24:35.467Z,47.73
2017-08-24T18:27:03.134Z,48.13
2017-08-24T18:29:30.591Z,51.87
2017-08-24T18:31:57.970Z,47.77
2017-08-24T18:34:25.366Z,50.73
2017-08-24T18:36:52.692Z,49.17
2017-08-24T18:39:20.026Z,54.07
2017-08-24T18:41:47.325Z,49.70
2017-08-24T18:44:14.700Z,52.90
2017-08-24T18:46:42.029Z,51.17
2017-08-24T18:49:09.406Z,55.07
2017-08-24T18:51:36.716Z,53.50
2017-08-24T18:54:04.127Z,51.00
2017-08-24T18:56:31.420Z,58.03
2017-08-24T18:58:58.736Z,52.20
2017-08-24T19:01:26.381Z,55.80
2017-08-24T19:03:53.846Z,56.90
2017-08-24T19:06:21.415Z,58.00
2017-08-24T19:08:48.796Z,52.80
2017-08-24T19:11:16.122Z,56.57
2017-08-24T19:13:43.431Z,57.87
2017-08-24T19:16:10.777Z,56.40
2017-08-24T19:18:38.077Z,56.17
2017-08-24T19:21:05.405Z,56.03
2017-08-24T19:23:32.730Z,55.07
2017-08-24T19:26:00.125Z,58.50
2017-08-24T19:28:27.455Z,66.60
2017-08-24T19:30:54.786Z,62.77
2017-08-24T19:33:22.188Z,61.90
2017-08-24T19:35:49.505Z,65.47
2017-08-24T19:38:16.827Z,62.20
2017-08-24T19:40:44.158Z,63.33
2017-08-24T19:43:11.479Z,54.97
2017-08-24T19:45:38.821Z,52.30
2017-08-24T19:48:06.150Z,63.70
2017-08-24T19:50:33.476Z,58.17
2017-08-24T19:53:00.818Z,59.40
2017-08-24T19:55:28.124Z,59.10
2017-08-24T19:57:55.465Z,53.97
2017-08-24T20:00:22.827Z,63.07
2017-08-24T20:02:50.159Z,52.83
2017-08-24T20:05:17.457Z,57.20
2017-08-24T20:07:45.617Z,58.00
2017-08-24T20:10:12.941Z,58.87
2017-08-24T20:12:40.256Z,67.87
2017-08-24T20:15:07.588Z,69.23
2017-08-24T20:17:34.910Z,64.37
2017-08-24T20:20:02.254Z,70.33
2017-08-24T20:22:29.582Z,66.70
2017-08-24T20:24:56.885Z,69.20
2017-08-24T20:27:24.253Z,66.20
2017-08-24T20:29:51.582Z,64.97
2017-08-24T20:32:18.934Z,70.50
2017-08-24T20:34:46.262Z,63.23
2017-08-24T20:37:13.590Z,68.10
2017-08-24T20:39:41.076Z,66.10
2017-08-24T20:42:08.403Z,75.00
2017-08-24T20:44:35.712Z,68.10
2017-08-24T20:47:03.047Z,75.13
2017-08-24T20:49:30.345Z,79.63
2017-08-24T20:51:57.707Z,75.40
2017-08-24T20:54:25.017Z,79.00
2017-08-24T20:56:52.321Z,80.30
2017-08-24T20:59:19.685Z,71.07
2017-08-24T21:01:46.998Z,75.57
2017-08-24T21:04:14.322Z,73.37
2017-08-24T21:06:41.633Z,74.80
2017-08-24T21:09:09.277Z,75.90
2017-08-24T21:11:36.583Z,76.73
2017-08-24T21:14:03.970Z,73.33
2017-08-24T21:16:31.721Z,75.43
2017-08-24T21:18:59.140Z,75.17
2017-08-24T21:21:26.507Z,70.53
2017-08-24T21:23:53.842Z,74.70
2017-08-24T21:26:21.166Z,74.63
2017-08-24T21:28:48.498Z,74.20
2017-08-24T21:31:15.814Z,73.87
2017-08-24T21:33:43.168Z,74.37
2017-08-24T21:36:10.503Z,79.20
2017-08-24T21:38:37.825Z,77.00
2017-08-24T21:41:05.142Z,81.00
2017-08-24T21:43:32.453Z,80.27
2017-08-24T21:45:59.770Z,78.90
2017-08-24T21:48:27.117Z,79.47
2017-08-24T21:50:54.449Z,83.80
2017-08-24T21:53:21.810Z,81.67
2017-08-24T21:55:49.121Z,82.30
2017-08-24T21:58:16.523Z,85.53
2017-08-24T22:00:43.821Z,81.43
2017-08-24T22:03:11.198Z,89.10
2017-08-24T22:05:38.500Z,93.40
2017-08-24T22:08:05.825Z,86.50
2017-08-24T22:10:33.165Z,88.73
2017-08-24T22:13:00.493Z,90.07
2017-08-24T22:15:27.837Z,88.63
2017-08-24T22:17:55.182Z,96.97
2017-08-24T22:20:22.533Z,110.37
2017-08-24T22:22:49.852Z,103.87
2017-08-24T22:25:17.231Z,93.70
2017-08-24T22:27:44.747Z,96.17
2017-08-24T22:30:12.103Z,94.20
2017-08-24T22:32:39.423Z,94.07
2017-08-24T22:35:06.774Z,92.83
2017-08-24T22:37:34.302Z,96.20
2017-08-24T22:40:01.641Z,87.90
2017-08-24T22:42:28.946Z,84.57
2017-08-24T22:44:56.424Z,94.90
2017-08-24T22:47:23.787Z,94.00
2017-08-24T22:49:51.430Z,88.67
2017-08-24T22:52:19.066Z,85.27
2017-08-24T22:54:52.146Z,92.03
2017-08-24T22:57:38.504Z,88.60
2017-08-24T23:00:12.539Z,104.63
2017-08-24T23:02:46.058Z,91.67
2017-08-24T23:05:13.373Z,86.60
2017-08-24T23:07:40.994Z,92.63
2017-08-24T23:10:08.313Z,95.50
2017-08-24T23:12:35.677Z,98.07
2017-08-24T23:15:03.248Z,88.57
2017-08-24T23:17:31.077Z,85.27
2017-08-24T23:19:58.393Z,90.83
2017-08-24T23:22:25.768Z,87.33
2017-08-24T23:24:53.238Z,89.50
2017-08-24T23:27:21.482Z,94.20
2017-08-24T23:29:49.345Z,85.73
2017-08-24T23:32:17.290Z,87.27
2017-08-24T23:34:44.821Z,81.30
2017-08-24T23:37:12.141Z,81.90
2017-08-24T23:39:40.428Z,84.80
2017-08-24T23:42:07.745Z,87.07
2017-08-24T23:44:36.246Z,86.47
2017-08-24T23:47:04.102Z,75.87
2017-08-24T23:49:32.371Z,76.73
2017-08-24T23:52:00.206Z,74.70
2017-08-24T23:54:27.545Z,78.80
2017-08-24T23:56:55.132Z,82.90
2017-08-24T23:59:22.451Z,84.70
